PWSweather.com
Personal Weather Stations
Station Observations
NBW76
Silver Creek, North Bend, WA 98065

Silver CreekNorth Bend, WA 98065

Lat: 47.4993612, Lon: -121.7783245

Elevation: 443

Station Type: Davisd VP2 + Solar + UV + Webcam

Latest ConditionsUpdated 3:50:00 PM PST Sunday, Nov 18, 2018
Currently Today's Max Today's Min Today's Average
Temperature 54.0°F12.2°C 58.6°F14.8°C 32.9°F0.5°C 44.8°F7.1°C
Dew Point 33.1°F0.6°C 34.0°F1.1°C 28.5°F-1.9°C 30.6°F-0.8°C
Winds 4.6 mph E7.4 kmh E 9.2 mph -14.8 kmh - - 3.4 mph 5.5 kmh
Wind Gusts 6.9 mph11.1 kmh 13.8 mph22.2 kmh - -
Humidity 45% 84% 39% 60%
Pressure 30.11 in1019.6 mb 30.20 in1022.7 mb 30.11 in1019.6 mb -
Hour Temp Dew Point Humidity Winds Wind Gusts Pressure Precip Precip Rate Daily Precip Total
03:50 PM 54.0°F12.2°C 33.1°F0.6°C 45% 4.6 mph E7.4 kmh E 6.9 mph11.1 kmh 30.11 in1019.6 mb - 0.00 in0.0 mm 0.00 in0.0 mm
03:40 PM 54.4°F12.4°C 32.9°F0.5°C 44% 6.9 mph ESE11.1 kmh ESE 10.4 mph16.7 kmh 30.11 in1019.6 mb - 0.00 in0.0 mm 0.00 in0.0 mm
03:30 PM 54.6°F12.6°C 33.1°F0.6°C 44% 6.9 mph E11.1 kmh E 11.5 mph18.5 kmh 30.11 in1019.6 mb - 0.00 in0.0 mm 0.00 in0.0 mm
03:20 PM 54.9°F12.7°C 32.8°F0.4°C 43% 6.9 mph N11.1 kmh N 11.5 mph18.5 kmh 30.11 in1019.6 mb - 0.00 in0.0 mm 0.00 in0.0 mm
03:10 PM 55.6°F13.1°C 32.9°F0.5°C 42% 4.6 mph N7.4 kmh N 5.8 mph9.3 kmh 30.11 in1019.6 mb - 0.00 in0.0 mm 0.00 in0.0 mm
03:00 PM 56.6°F13.7°C 33.1°F0.6°C 41% 5.8 mph N9.3 kmh N 9.2 mph14.8 kmh 30.11 in1019.6 mb - 0.00 in0.0 mm 0.00 in0.0 mm
02:50 PM 57.0°F13.9°C 33.5°F0.8°C 41% 4.6 mph N7.4 kmh N 6.9 mph11.1 kmh 30.11 in1019.6 mb - 0.00 in0.0 mm 0.00 in0.0 mm
02:10 PM 58.3°F14.6°C 34.0°F1.1°C 40% 2.3 mph E3.7 kmh E 5.8 mph9.3 kmh 30.11 in1019.6 mb - 0.00 in0.0 mm 0.00 in0.0 mm
02:00 PM 58.0°F14.4°C 33.2°F0.7°C 39% 3.5 mph E5.6 kmh E 5.8 mph9.3 kmh 30.12 in1020.0 mb - 0.00 in0.0 mm 0.00 in0.0 mm
01:50 PM 57.3°F14.1°C 33.2°F0.7°C 40% 5.8 mph ESE9.3 kmh ESE 10.4 mph16.7 kmh 30.12 in1020.0 mb - 0.00 in0.0 mm 0.00 in0.0 mm
01:40 PM 58.6°F14.8°C 33.7°F0.9°C 39% 4.6 mph ESE7.4 kmh ESE 5.8 mph9.3 kmh 30.12 in1020.0 mb - 0.00 in0.0 mm 0.00 in0.0 mm
01:30 PM 57.8°F14.3°C 33.0°F0.6°C 39% 3.5 mph E5.6 kmh E 3.5 mph5.6 kmh 30.12 in1020.0 mb - 0.00 in0.0 mm 0.00 in0.0 mm
01:20 PM 57.5°F14.2°C 32.7°F0.4°C 39% 5.8 mph ESE9.3 kmh ESE 4.6 mph7.4 kmh 30.12 in1020.0 mb - 0.00 in0.0 mm 0.00 in0.0 mm
01:10 PM 58.2°F14.6°C 34.0°F1.1°C 40% 2.3 mph ESE3.7 kmh ESE 5.8 mph9.3 kmh 30.12 in1020.0 mb - 0.00 in0.0 mm 0.00 in0.0 mm
01:00 PM 57.1°F13.9°C 32.4°F0.2°C 39% 4.6 mph ESE7.4 kmh ESE 9.2 mph14.8 kmh 30.13 in1020.3 mb - 0.00 in0.0 mm 0.00 in0.0 mm
12:50 PM 57.0°F13.9°C 32.2°F0.1°C 39% 8.1 mph ESE13.0 kmh ESE 11.5 mph18.5 kmh 30.12 in1020.0 mb - 0.00 in0.0 mm 0.00 in0.0 mm
12:40 PM 57.5°F14.2°C 33.3°F0.7°C 40% 2.3 mph ESE3.7 kmh ESE 6.9 mph11.1 kmh 30.13 in1020.3 mb - 0.00 in0.0 mm 0.00 in0.0 mm
12:30 PM 56.9°F13.8°C 32.2°F0.1°C 39% 5.8 mph ESE9.3 kmh ESE 10.4 mph16.7 kmh 30.13 in1020.3 mb - 0.00 in0.0 mm 0.00 in0.0 mm
12:20 PM 54.6°F12.6°C 31.3°F-0.4°C 41% 1.2 mph NE1.9 kmh NE 3.5 mph5.6 kmh 30.14 in1020.7 mb - 0.00 in0.0 mm 0.00 in0.0 mm
12:10 PM 55.7°F13.2°C 31.7°F-0.2°C 40% 2.3 mph N3.7 kmh N 3.5 mph5.6 kmh 30.14 in1020.7 mb - 0.00 in0.0 mm 0.00 in0.0 mm
12:00 PM 52.9°F11.6°C 30.4°F-0.9°C 42% 3.5 mph ESE5.6 kmh ESE 4.6 mph7.4 kmh 30.15 in1021.0 mb - 0.00 in0.0 mm 0.00 in0.0 mm
11:50 AM 52.6°F11.4°C 30.1°F-1.1°C 42% 3.5 mph N5.6 kmh N 3.5 mph5.6 kmh 30.15 in1021.0 mb - 0.00 in0.0 mm 0.00 in0.0 mm
11:40 AM 53.3°F11.8°C 31.3°F-0.4°C 43% 1.2 mph NNE1.9 kmh NNE 2.3 mph3.7 kmh 30.15 in1021.0 mb - 0.00 in0.0 mm 0.00 in0.0 mm
11:30 AM 52.1°F11.2°C 30.8°F-0.7°C 44% 2.3 mph N3.7 kmh N 3.5 mph5.6 kmh 30.15 in1021.0 mb - 0.00 in0.0 mm 0.00 in0.0 mm
11:20 AM 52.2°F11.2°C 30.4°F-0.9°C 43% 2.3 mph NW3.7 kmh NW 3.5 mph5.6 kmh 30.16 in1021.3 mb - 0.00 in0.0 mm 0.00 in0.0 mm
11:10 AM 53.7°F12.1°C 32.3°F0.2°C 44% 2.3 mph SE3.7 kmh SE 3.5 mph5.6 kmh 30.16 in1021.3 mb - 0.00 in0.0 mm 0.00 in0.0 mm
11:00 AM 53.5°F11.9°C 31.5°F-0.3°C 43% 3.5 mph E5.6 kmh E 3.5 mph5.6 kmh 30.16 in1021.3 mb - 0.00 in0.0 mm 0.00 in0.0 mm
10:50 AM 53.4°F11.9°C 31.4°F-0.3°C 43% 3.5 mph SE5.6 kmh SE 4.6 mph7.4 kmh 30.16 in1021.3 mb - 0.00 in0.0 mm 0.00 in0.0 mm
10:40 AM 52.7°F11.5°C 31.4°F-0.3°C 44% 9.2 mph ESE14.8 kmh ESE 11.5 mph18.5 kmh 30.16 in1021.3 mb - 0.00 in0.0 mm 0.00 in0.0 mm
10:30 AM 52.7°F11.5°C 31.4°F-0.3°C 44% 3.5 mph ESE5.6 kmh ESE 4.6 mph7.4 kmh 30.16 in1021.3 mb - 0.00 in0.0 mm 0.00 in0.0 mm
10:20 AM 51.6°F10.9°C 30.9°F-0.6°C 45% 5.8 mph SE9.3 kmh SE 5.8 mph9.3 kmh 30.16 in1021.3 mb - 0.00 in0.0 mm 0.00 in0.0 mm
10:10 AM 51.1°F10.6°C 31.0°F-0.6°C 46% 5.8 mph SE9.3 kmh SE 10.4 mph16.7 kmh 30.17 in1021.7 mb - 0.00 in0.0 mm 0.00 in0.0 mm
10:00 AM 50.5°F10.3°C 31.0°F-0.6°C 47% 4.6 mph ESE7.4 kmh ESE 11.5 mph18.5 kmh 30.17 in1021.7 mb - 0.00 in0.0 mm 0.00 in0.0 mm
09:50 AM 50.6°F10.3°C 31.1°F-0.5°C 47% 3.5 mph E5.6 kmh E 10.4 mph16.7 kmh 30.17 in1021.7 mb - 0.00 in0.0 mm 0.00 in0.0 mm
09:40 AM 50.0°F10.0°C 30.5°F-0.8°C 47% 4.6 mph ESE7.4 kmh ESE 5.8 mph9.3 kmh 30.17 in1021.7 mb - 0.00 in0.0 mm 0.00 in0.0 mm
09:30 AM 49.0°F9.4°C 30.2°F-1.0°C 48% 5.8 mph SE9.3 kmh SE 10.4 mph16.7 kmh 30.17 in1021.7 mb - 0.00 in0.0 mm 0.00 in0.0 mm
09:20 AM 47.5°F8.6°C 29.8°F-1.2°C 50% 8.1 mph SE13.0 kmh SE 11.5 mph18.5 kmh 30.17 in1021.7 mb - 0.00 in0.0 mm 0.00 in0.0 mm
09:10 AM 43.6°F6.4°C 30.2°F-1.0°C 59% 4.6 mph SE7.4 kmh SE 5.8 mph9.3 kmh 30.18 in1022.0 mb - 0.00 in0.0 mm 0.00 in0.0 mm
09:00 AM 46.2°F7.9°C 29.1°F-1.6°C 51% 6.9 mph ESE11.1 kmh ESE 10.4 mph16.7 kmh 30.18 in1022.0 mb - 0.00 in0.0 mm 0.00 in0.0 mm
08:50 AM 46.1°F7.8°C 28.9°F-1.7°C 51% 8.1 mph SE13.0 kmh SE 10.4 mph16.7 kmh 30.18 in1022.0 mb - 0.00 in0.0 mm 0.00 in0.0 mm
08:40 AM 43.2°F6.2°C 29.5°F-1.4°C 58% 4.6 mph ESE7.4 kmh ESE 9.2 mph14.8 kmh 30.19 in1022.4 mb - 0.00 in0.0 mm 0.00 in0.0 mm
08:30 AM 43.4°F6.3°C 29.6°F-1.3°C 58% 1.2 mph NNE1.9 kmh NNE 2.3 mph3.7 kmh 30.18 in1022.0 mb - 0.00 in0.0 mm 0.00 in0.0 mm
08:20 AM 44.3°F6.8°C 28.6°F-1.9°C 54% 6.9 mph ESE11.1 kmh ESE 13.8 mph22.2 kmh 30.18 in1022.0 mb - 0.00 in0.0 mm 0.00 in0.0 mm
08:10 AM 44.2°F6.8°C 28.6°F-1.9°C 54% 4.6 mph ESE7.4 kmh ESE 6.9 mph11.1 kmh 30.18 in1022.0 mb - 0.00 in0.0 mm 0.00 in0.0 mm
08:00 AM 44.1°F6.7°C 28.5°F-1.9°C 54% 6.9 mph ESE11.1 kmh ESE 6.9 mph11.1 kmh 30.18 in1022.0 mb - 0.00 in0.0 mm 0.00 in0.0 mm
07:50 AM 43.9°F6.6°C 28.7°F-1.8°C 55% 8.1 mph E13.0 kmh E 10.4 mph16.7 kmh 30.19 in1022.4 mb - 0.00 in0.0 mm 0.00 in0.0 mm
07:40 AM 43.1°F6.2°C 28.9°F-1.7°C 57% 5.8 mph ESE9.3 kmh ESE 11.5 mph18.5 kmh 30.18 in1022.0 mb - 0.00 in0.0 mm 0.00 in0.0 mm
07:30 AM 42.8°F6.0°C 29.4°F-1.4°C 59% 4.6 mph SE7.4 kmh SE 4.6 mph7.4 kmh 30.18 in1022.0 mb - 0.00 in0.0 mm 0.00 in0.0 mm
07:20 AM 35.9°F2.2°C 29.4°F-1.4°C 77% 1.2 mph ESE1.9 kmh ESE 2.3 mph3.7 kmh 30.19 in1022.4 mb - 0.00 in0.0 mm 0.00 in0.0 mm
07:10 AM 32.9°F0.5°C 28.6°F-1.9°C 84% 1.2 mph N1.9 kmh N 2.3 mph3.7 kmh 30.20 in1022.7 mb - 0.00 in0.0 mm 0.00 in0.0 mm
07:00 AM 33.3°F0.7°C 28.7°F-1.8°C 83% 1.2 mph N1.9 kmh N 3.5 mph5.6 kmh 30.20 in1022.7 mb - 0.00 in0.0 mm 0.00 in0.0 mm
06:50 AM 33.4°F0.8°C 28.5°F-1.9°C 82% 2.3 mph NNE3.7 kmh NNE 2.3 mph3.7 kmh 30.19 in1022.4 mb - 0.00 in0.0 mm 0.00 in0.0 mm
06:40 AM 34.3°F1.3°C 28.8°F-1.8°C 80% Calm Calm 2.3 mph3.7 kmh 30.19 in1022.4 mb - 0.00 in0.0 mm 0.00 in0.0 mm
06:30 AM 35.9°F2.2°C 29.1°F-1.6°C 76% Calm Calm 2.3 mph3.7 kmh 30.19 in1022.4 mb - 0.00 in0.0 mm 0.00 in0.0 mm
06:20 AM 37.0°F2.8°C 29.2°F-1.6°C 73% 2.3 mph NW3.7 kmh NW 3.5 mph5.6 kmh 30.19 in1022.4 mb - 0.00 in0.0 mm 0.00 in0.0 mm
06:10 AM 41.5°F5.3°C 29.0°F-1.7°C 61% 2.3 mph N3.7 kmh N 3.5 mph5.6 kmh 30.18 in1022.0 mb - 0.00 in0.0 mm 0.00 in0.0 mm
06:00 AM 43.1°F6.2°C 28.9°F-1.7°C 57% 5.8 mph ESE9.3 kmh ESE 9.2 mph14.8 kmh 30.18 in1022.0 mb - 0.00 in0.0 mm 0.00 in0.0 mm
05:50 AM 41.8°F5.4°C 30.9°F-0.6°C 65% 6.9 mph ESE11.1 kmh ESE 11.5 mph18.5 kmh 30.18 in1022.0 mb - 0.00 in0.0 mm 0.00 in0.0 mm
05:40 AM 34.2°F1.2°C 28.9°F-1.7°C 81% 1.2 mph NNE1.9 kmh NNE 3.5 mph5.6 kmh 30.19 in1022.4 mb - 0.00 in0.0 mm 0.00 in0.0 mm
05:30 AM 35.1°F1.7°C 29.5°F-1.4°C 80% 2.3 mph E3.7 kmh E 4.6 mph7.4 kmh 30.19 in1022.4 mb - 0.00 in0.0 mm 0.00 in0.0 mm
05:20 AM 34.3°F1.3°C 29.1°F-1.6°C 81% 1.2 mph NE1.9 kmh NE 1.2 mph1.9 kmh 30.19 in1022.4 mb - 0.00 in0.0 mm 0.00 in0.0 mm
05:10 AM 34.9°F1.6°C 29.0°F-1.7°C 79% 3.5 mph NNW5.6 kmh NNW 3.5 mph5.6 kmh 30.19 in1022.4 mb - 0.00 in0.0 mm 0.00 in0.0 mm
05:00 AM 35.2°F1.8°C 29.0°F-1.7°C 78% 2.3 mph E3.7 kmh E 3.5 mph5.6 kmh 30.19 in1022.4 mb - 0.00 in0.0 mm 0.00 in0.0 mm
04:50 AM 36.1°F2.3°C 29.3°F-1.5°C 76% 1.2 mph NW1.9 kmh NW 2.3 mph3.7 kmh 30.19 in1022.4 mb - 0.00 in0.0 mm 0.00 in0.0 mm
04:40 AM 36.8°F2.7°C 29.3°F-1.5°C 74% 1.2 mph NNW1.9 kmh NNW 3.5 mph5.6 kmh 30.19 in1022.4 mb - 0.00 in0.0 mm 0.00 in0.0 mm
04:30 AM 38.7°F3.7°C 29.0°F-1.7°C 68% 1.2 mph SE1.9 kmh SE 3.5 mph5.6 kmh 30.19 in1022.4 mb - 0.00 in0.0 mm 0.00 in0.0 mm
04:20 AM 37.5°F3.1°C 29.3°F-1.5°C 72% 1.2 mph E1.9 kmh E 6.9 mph11.1 kmh 30.19 in1022.4 mb - 0.00 in0.0 mm 0.00 in0.0 mm
04:10 AM 41.3°F5.2°C 29.7°F-1.3°C 63% 2.3 mph ENE3.7 kmh ENE 3.5 mph5.6 kmh 30.19 in1022.4 mb - 0.00 in0.0 mm 0.00 in0.0 mm
04:00 AM 39.9°F4.4°C 30.2°F-1.0°C 68% 5.8 mph ESE9.3 kmh ESE 6.9 mph11.1 kmh 30.19 in1022.4 mb - 0.00 in0.0 mm 0.00 in0.0 mm
03:50 AM 38.1°F3.4°C 29.2°F-1.6°C 70% 1.2 mph E1.9 kmh E 3.5 mph5.6 kmh 30.19 in1022.4 mb - 0.00 in0.0 mm 0.00 in0.0 mm
03:40 AM 38.0°F3.3°C 29.4°F-1.4°C 71% Calm Calm 2.3 mph3.7 kmh 30.20 in1022.7 mb - 0.00 in0.0 mm 0.00 in0.0 mm
03:30 AM 42.8°F6.0°C 29.9°F-1.2°C 60% 2.3 mph E3.7 kmh E 4.6 mph7.4 kmh 30.20 in1022.7 mb - 0.00 in0.0 mm 0.00 in0.0 mm
03:20 AM 36.9°F2.7°C 30.0°F-1.1°C 76% 4.6 mph ESE7.4 kmh ESE 8.1 mph13.0 kmh 30.20 in1022.7 mb - 0.00 in0.0 mm 0.00 in0.0 mm
03:10 AM 36.7°F2.6°C 29.5°F-1.4°C 75% 1.2 mph E1.9 kmh E 2.3 mph3.7 kmh 30.20 in1022.7 mb - 0.00 in0.0 mm 0.00 in0.0 mm
03:00 AM 38.1°F3.4°C 30.5°F-0.8°C 74% 3.5 mph E5.6 kmh E 6.9 mph11.1 kmh 30.19 in1022.4 mb - 0.00 in0.0 mm 0.00 in0.0 mm
02:50 AM 36.3°F2.4°C 29.8°F-1.2°C 77% Calm Calm -- 30.20 in1022.7 mb - 0.00 in0.0 mm 0.00 in0.0 mm
02:40 AM 38.0°F3.3°C 29.4°F-1.4°C 71% 2.3 mph NW3.7 kmh NW 3.5 mph5.6 kmh 30.20 in1022.7 mb - 0.00 in0.0 mm 0.00 in0.0 mm
02:30 AM 41.6°F5.3°C 30.4°F-0.9°C 64% 3.5 mph ESE5.6 kmh ESE 4.6 mph7.4 kmh 30.19 in1022.4 mb - 0.00 in0.0 mm 0.00 in0.0 mm
02:20 AM 37.8°F3.2°C 30.6°F-0.8°C 75% 2.3 mph SE3.7 kmh SE 3.5 mph5.6 kmh 30.20 in1022.7 mb - 0.00 in0.0 mm 0.00 in0.0 mm
02:10 AM 37.1°F2.8°C 30.2°F-1.0°C 76% 2.3 mph N3.7 kmh N 3.5 mph5.6 kmh 30.20 in1022.7 mb - 0.00 in0.0 mm 0.00 in0.0 mm
02:00 AM 35.9°F2.2°C 30.3°F-0.9°C 80% 2.3 mph SSW3.7 kmh SSW 3.5 mph5.6 kmh 30.20 in1022.7 mb - 0.00 in0.0 mm 0.00 in0.0 mm
01:50 AM 35.9°F2.2°C 30.3°F-0.9°C 80% 2.3 mph N3.7 kmh N 3.5 mph5.6 kmh 30.20 in1022.7 mb - 0.00 in0.0 mm 0.00 in0.0 mm
01:40 AM 35.6°F2.0°C 30.7°F-0.7°C 82% 1.2 mph ESE1.9 kmh ESE 3.5 mph5.6 kmh 30.20 in1022.7 mb - 0.00 in0.0 mm 0.00 in0.0 mm
01:30 AM 35.7°F2.1°C 30.7°F-0.7°C 82% 1.2 mph ESE1.9 kmh ESE 2.3 mph3.7 kmh 30.20 in1022.7 mb - 0.00 in0.0 mm 0.00 in0.0 mm
01:20 AM 35.3°F1.8°C 30.7°F-0.7°C 83% Calm Calm 3.5 mph5.6 kmh 30.20 in1022.7 mb - 0.00 in0.0 mm 0.00 in0.0 mm
01:10 AM 35.5°F1.9°C 30.5°F-0.8°C 82% Calm Calm -- 30.20 in1022.7 mb - 0.00 in0.0 mm 0.00 in0.0 mm
01:00 AM 36.0°F2.2°C 30.7°F-0.7°C 81% 2.3 mph NW3.7 kmh NW 3.5 mph5.6 kmh 30.20 in1022.7 mb - 0.00 in0.0 mm 0.00 in0.0 mm
12:50 AM 36.4°F2.4°C 30.5°F-0.8°C 79% 1.2 mph NNW1.9 kmh NNW 2.3 mph3.7 kmh 30.20 in1022.7 mb - 0.00 in0.0 mm 0.00 in0.0 mm
12:40 AM 37.1°F2.8°C 30.9°F-0.6°C 78% 3.5 mph ESE5.6 kmh ESE 3.5 mph5.6 kmh 30.20 in1022.7 mb - 0.00 in0.0 mm 0.00 in0.0 mm
12:30 AM 36.2°F2.3°C 30.3°F-0.9°C 79% 1.2 mph NW1.9 kmh NW 2.3 mph3.7 kmh 30.20 in1022.7 mb - 0.00 in0.0 mm 0.00 in0.0 mm
12:20 AM 37.3°F2.9°C 30.4°F-0.9°C 76% 1.2 mph NW1.9 kmh NW 2.3 mph3.7 kmh 30.20 in1022.7 mb - 0.00 in0.0 mm 0.00 in0.0 mm
12:10 AM 40.6°F4.8°C 31.2°F-0.4°C 69% 2.3 mph ESE3.7 kmh ESE 3.5 mph5.6 kmh 30.19 in1022.4 mb - 0.00 in0.0 mm 0.00 in0.0 mm
12:00 AM 37.4°F3.0°C 30.9°F-0.6°C 77% 1.2 mph ESE1.9 kmh ESE 4.6 mph7.4 kmh 30.20 in1022.7 mb - 0.00 in0.0 mm 0.00 in0.0 mm